createdAt,value
2018-01-29T01:39:18.311Z,13.63
2018-01-29T01:39:18.886Z,13.53
2018-01-29T01:39:19.482Z,13.72
2018-01-29T01:39:20.088Z,13.53
2018-01-29T01:39:20.683Z,13.53
2018-01-29T01:39:21.282Z,13.53
2018-01-29T01:39:21.882Z,13.63
2018-01-29T01:39:22.482Z,13.63
2018-01-29T01:40:15.938Z,13.72
2018-01-29T01:40:16.537Z,13.72
2018-01-29T01:40:17.134Z,13.82
2018-01-29T01:40:17.734Z,13.82
2018-01-29T01:40:18.333Z,13.72
2018-01-29T01:40:18.934Z,13.72
2018-01-29T01:40:19.533Z,13.82
2018-01-29T01:40:20.135Z,13.82
2018-01-29T01:41:13.624Z,14.58
2018-01-29T01:41:14.189Z,14.87
2018-01-29T01:41:14.787Z,14.87
2018-01-29T01:41:15.387Z,14.39
2018-01-29T01:41:15.986Z,14.68
2018-01-29T01:41:16.589Z,14.58
2018-01-29T01:41:17.187Z,14.58
2018-01-29T01:41:17.789Z,14.77
2018-01-29T01:42:11.243Z,16.30
2018-01-29T01:42:11.842Z,16.30
2018-01-29T01:42:12.438Z,16.30
2018-01-29T01:42:13.040Z,16.20
2018-01-29T01:42:13.640Z,16.39
2018-01-29T01:42:14.240Z,16.39
2018-01-29T01:42:14.838Z,16.30
2018-01-29T01:42:15.438Z,16.20
2018-01-29T01:43:09.918Z,17.72
2018-01-29T01:43:10.523Z,17.92
2018-01-29T01:43:11.119Z,17.44
2018-01-29T01:43:11.715Z,18.11
2018-01-29T01:43:12.315Z,18.01
2018-01-29T01:43:12.915Z,18.01
2018-01-29T01:43:13.515Z,18.30
2018-01-29T01:43:14.114Z,17.92
2018-01-29T01:44:07.572Z,18.30
2018-01-29T01:44:08.169Z,18.59
2018-01-29T01:44:08.773Z,18.30
2018-01-29T01:44:09.367Z,18.30
2018-01-29T01:44:09.969Z,18.20
2018-01-29T01:44:10.569Z,18.30
2018-01-29T01:44:11.168Z,18.49
2018-01-29T01:44:11.766Z,18.68
2018-01-29T01:45:05.224Z,19.54
2018-01-29T01:45:05.823Z,19.73
2018-01-29T01:45:06.420Z,19.64
2018-01-29T01:45:07.021Z,19.92
2018-01-29T01:45:07.620Z,19.92
2018-01-29T01:45:08.218Z,19.64
2018-01-29T01:45:08.824Z,19.73
2018-01-29T01:45:09.420Z,19.82
2018-01-29T01:46:03.897Z,21.54
2018-01-29T01:46:04.496Z,21.44
2018-01-29T01:46:05.095Z,21.54
2018-01-29T01:46:05.703Z,21.44
2018-01-29T01:46:06.299Z,21.73
2018-01-29T01:46:06.901Z,21.44
2018-01-29T01:46:07.493Z,21.54
2018-01-29T01:46:08.093Z,21.64
2018-01-29T01:47:02.606Z,21.73
2018-01-29T01:47:03.172Z,21.92
2018-01-29T01:47:03.771Z,21.83
2018-01-29T01:47:04.371Z,21.83
2018-01-29T01:47:04.970Z,21.64
2018-01-29T01:47:05.570Z,21.64
2018-01-29T01:47:06.170Z,21.44
2018-01-29T01:47:06.778Z,21.83
2018-01-29T01:48:01.249Z,22.20
2018-01-29T01:48:01.847Z,22.30
2018-01-29T01:48:02.447Z,22.02
2018-01-29T01:48:03.047Z,22.20
2018-01-29T01:48:03.646Z,22.30
2018-01-29T01:48:04.246Z,22.59
2018-01-29T01:48:04.846Z,22.59
2018-01-29T01:48:05.445Z,22.49
2018-01-29T01:48:59.926Z,22.78
2018-01-29T01:49:00.525Z,22.78
2018-01-29T01:49:01.129Z,22.78
2018-01-29T01:49:01.722Z,22.40
2018-01-29T01:49:02.323Z,22.97
2018-01-29T01:49:02.923Z,22.78
2018-01-29T01:49:03.521Z,22.78
2018-01-29T01:49:04.122Z,22.49
2018-01-29T01:49:58.601Z,22.68
2018-01-29T01:49:59.200Z,22.78
2018-01-29T01:49:59.799Z,22.68
2018-01-29T01:50:00.397Z,22.68
2018-01-29T01:50:00.998Z,22.68
2018-01-29T01:50:01.598Z,22.59
2018-01-29T01:50:02.204Z,22.68
2018-01-29T01:50:02.797Z,22.59
2018-01-29T01:50:57.278Z,22.88
2018-01-29T01:50:57.875Z,22.88
2018-01-29T01:50:58.474Z,22.78
2018-01-29T01:50:59.074Z,22.88
2018-01-29T01:50:59.674Z,22.68
2018-01-29T01:51:00.274Z,22.59
2018-01-29T01:51:00.874Z,22.68
2018-01-29T01:51:01.474Z,23.07
2018-01-29T01:51:54.929Z,23.25
2018-01-29T01:51:55.528Z,23.35
2018-01-29T01:51:56.126Z,23.25
2018-01-29T01:51:56.727Z,23.25
2018-01-29T01:51:57.332Z,23.25
2018-01-29T01:51:57.927Z,23.16
2018-01-29T01:51:58.527Z,23.16
2018-01-29T01:51:59.126Z,23.16
2018-01-29T01:52:52.605Z,23.07
2018-01-29T01:52:53.179Z,22.88
2018-01-29T01:52:53.779Z,22.88
2018-01-29T01:52:54.379Z,23.07
2018-01-29T01:52:54.978Z,22.68
2018-01-29T01:52:55.579Z,23.16
2018-01-29T01:52:56.178Z,23.25
2018-01-29T01:52:56.778Z,23.07
2018-01-29T01:53:50.232Z,24.11
2018-01-29T01:53:50.834Z,24.30
2018-01-29T01:53:51.431Z,24.21
2018-01-29T01:53:52.030Z,24.30
2018-01-29T01:53:52.631Z,24.40
2018-01-29T01:53:53.235Z,24.21
2018-01-29T01:53:53.833Z,24.11
2018-01-29T01:53:54.427Z,24.21
2018-01-29T01:54:48.908Z,26.78
2018-01-29T01:54:49.505Z,26.78
2018-01-29T01:54:50.108Z,26.78
2018-01-29T01:54:50.706Z,26.78
2018-01-29T01:54:51.306Z,26.78
2018-01-29T01:54:51.905Z,26.78
2018-01-29T01:54:52.504Z,26.59
2018-01-29T01:54:53.105Z,26.97
2018-01-29T01:55:47.584Z,26.31
2018-01-29T01:55:48.180Z,26.40
2018-01-29T01:55:48.784Z,26.31
2018-01-29T01:55:49.380Z,26.31
2018-01-29T01:55:49.980Z,26.31
2018-01-29T01:55:50.580Z,26.21
2018-01-29T01:55:51.181Z,26.40
2018-01-29T01:55:51.780Z,26.40
2018-01-29T01:56:46.261Z,26.88
2018-01-29T01:56:46.857Z,27.16
2018-01-29T01:56:47.457Z,26.88
2018-01-29T01:56:48.058Z,27.16
2018-01-29T01:56:48.657Z,27.26
2018-01-29T01:56:49.256Z,27.26
2018-01-29T01:56:49.857Z,26.97
2018-01-29T01:56:50.456Z,26.88
2018-01-29T01:57:44.967Z,28.88
2018-01-29T01:57:45.534Z,28.50
2018-01-29T01:57:46.133Z,28.69
2018-01-29T01:57:46.732Z,28.59
2018-01-29T01:57:47.332Z,28.69
2018-01-29T01:57:47.933Z,29.07
2018-01-29T01:57:48.532Z,28.88
2018-01-29T01:57:49.131Z,29.07
2018-01-29T01:58:43.613Z,32.31
2018-01-29T01:58:44.208Z,32.40
2018-01-29T01:58:44.808Z,32.40
2018-01-29T01:58:45.408Z,32.50
2018-01-29T01:58:46.008Z,32.31
2018-01-29T01:58:46.609Z,32.31
2018-01-29T01:58:47.210Z,32.50
2018-01-29T01:58:47.807Z,32.50
2018-01-29T01:59:41.265Z,32.60
2018-01-29T01:59:41.861Z,32.50
2018-01-29T01:59:42.463Z,32.69
2018-01-29T01:59:43.061Z,32.88
2018-01-29T01:59:43.661Z,32.98
2018-01-29T01:59:44.261Z,32.98
2018-01-29T01:59:44.861Z,32.88
2018-01-29T01:59:45.460Z,32.69
2018-01-29T02:00:39.940Z,33.55
2018-01-29T02:00:40.537Z,33.55
2018-01-29T02:00:41.134Z,33.26
2018-01-29T02:00:41.734Z,33.45
2018-01-29T02:00:42.342Z,33.26
2018-01-29T02:00:42.934Z,33.26
2018-01-29T02:00:43.536Z,33.36
2018-01-29T02:00:44.135Z,33.45
2018-01-29T02:01:38.614Z,32.79
2018-01-29T02:01:39.212Z,32.69
2018-01-29T02:01:39.813Z,32.79
2018-01-29T02:01:40.412Z,32.60
2018-01-29T02:01:41.011Z,32.79
2018-01-29T02:01:41.611Z,32.79
2018-01-29T02:01:42.212Z,32.88
2018-01-29T02:01:42.810Z,32.88
2018-01-29T02:02:37.290Z,33.84
2018-01-29T02:02:37.887Z,34.22
2018-01-29T02:02:38.486Z,34.60
2018-01-29T02:02:39.088Z,34.60
2018-01-29T02:02:39.689Z,34.60
2018-01-29T02:02:40.287Z,34.69
2018-01-29T02:02:40.887Z,34.50
2018-01-29T02:02:41.486Z,34.60
2018-01-29T02:03:35.991Z,34.98
2018-01-29T02:03:36.564Z,35.17
2018-01-29T02:03:37.162Z,35.08
2018-01-29T02:03:37.762Z,34.98
2018-01-29T02:03:38.363Z,35.08
2018-01-29T02:03:38.963Z,34.98
2018-01-29T02:03:39.563Z,34.98
2018-01-29T02:03:40.163Z,34.98
2018-01-29T02:04:34.643Z,36.03
2018-01-29T02:04:35.244Z,36.03
2018-01-29T02:04:35.839Z,35.74
2018-01-29T02:04:36.438Z,35.84
2018-01-29T02:04:37.039Z,35.93
2018-01-29T02:04:37.638Z,35.93
2018-01-29T02:04:38.237Z,35.84
2018-01-29T02:04:38.839Z,35.84
2018-01-29T02:05:32.296Z,37.17
2018-01-29T02:05:32.891Z,37.08
2018-01-29T02:05:33.489Z,36.88
2018-01-29T02:05:34.091Z,36.69
2018-01-29T02:05:34.689Z,36.88
2018-01-29T02:05:35.289Z,36.60
2018-01-29T02:05:35.889Z,37.17
2018-01-29T02:05:36.490Z,37.08
2018-01-29T02:06:30.970Z,38.03
2018-01-29T02:06:31.565Z,38.12
2018-01-29T02:06:32.165Z,38.12
2018-01-29T02:06:32.763Z,38.22
2018-01-29T02:06:33.364Z,38.22
2018-01-29T02:06:33.965Z,38.22
2018-01-29T02:06:34.565Z,38.22
2018-01-29T02:06:35.165Z,38.03
2018-01-29T02:07:29.644Z,39.75
2018-01-29T02:07:30.243Z,39.56
2018-01-29T02:07:30.840Z,39.56
2018-01-29T02:07:31.442Z,39.75
2018-01-29T02:07:32.051Z,39.65
2018-01-29T02:07:32.639Z,39.36
2018-01-29T02:07:33.240Z,39.56
2018-01-29T02:07:33.841Z,39.56
2018-01-29T02:08:27.331Z,38.51
2018-01-29T02:08:27.894Z,38.79
2018-01-29T02:08:28.494Z,38.41
2018-01-29T02:08:29.093Z,38.51
2018-01-29T02:08:29.694Z,38.60
2018-01-29T02:08:30.293Z,38.70
2018-01-29T02:08:30.894Z,38.32
2018-01-29T02:08:31.493Z,38.41
2018-01-29T02:09:25.974Z,38.79
2018-01-29T02:09:26.569Z,38.70
2018-01-29T02:09:27.169Z,38.70
2018-01-29T02:09:27.769Z,38.70
2018-01-29T02:09:28.370Z,38.89
2018-01-29T02:09:28.972Z,38.79
2018-01-29T02:09:29.569Z,38.60
2018-01-29T02:09:30.169Z,38.70
2018-01-29T02:10:24.648Z,38.89
2018-01-29T02:10:25.246Z,38.51
2018-01-29T02:10:25.844Z,38.70
2018-01-29T02:10:26.444Z,38.60
2018-01-29T02:10:27.045Z,38.60
2018-01-29T02:10:27.643Z,38.70
2018-01-29T02:10:28.244Z,38.51
2018-01-29T02:10:28.843Z,38.70
2018-01-29T02:11:23.325Z,38.70
2018-01-29T02:11:23.921Z,38.70
2018-01-29T02:11:24.520Z,38.79
2018-01-29T02:11:25.119Z,38.89
2018-01-29T02:11:25.720Z,38.79
2018-01-29T02:11:26.321Z,38.70
2018-01-29T02:11:26.920Z,38.79
2018-01-29T02:11:27.520Z,38.79
2018-01-29T02:12:21.999Z,37.17
2018-01-29T02:12:22.594Z,37.27
2018-01-29T02:12:23.195Z,37.17
2018-01-29T02:12:23.805Z,37.36
2018-01-29T02:12:24.394Z,37.27
2018-01-29T02:12:24.996Z,37.46
2018-01-29T02:12:25.595Z,37.46
2018-01-29T02:12:26.195Z,37.55
2018-01-29T02:13:20.674Z,37.27
2018-01-29T02:13:21.273Z,37.17
2018-01-29T02:13:21.871Z,37.27
2018-01-29T02:13:22.470Z,37.17
2018-01-29T02:13:23.070Z,37.27
2018-01-29T02:13:23.671Z,37.36
2018-01-29T02:13:24.269Z,37.27
2018-01-29T02:13:24.871Z,37.08
2018-01-29T02:14:19.383Z,37.46
2018-01-29T02:14:19.958Z,37.55
2018-01-29T02:14:20.546Z,37.46
2018-01-29T02:14:21.147Z,37.65
2018-01-29T02:14:21.746Z,37.55
2018-01-29T02:14:22.345Z,37.84
2018-01-29T02:14:22.948Z,37.55
2018-01-29T02:14:23.546Z,37.84
2018-01-29T02:15:18.027Z,37.27
2018-01-29T02:15:18.624Z,37.27
2018-01-29T02:15:19.223Z,37.08
2018-01-29T02:15:19.821Z,37.46
2018-01-29T02:15:20.421Z,37.55
2018-01-29T02:15:21.022Z,37.08
2018-01-29T02:15:21.622Z,37.08
2018-01-29T02:15:22.221Z,36.98
2018-01-29T02:16:15.678Z,36.41
2018-01-29T02:16:16.274Z,36.41
2018-01-29T02:16:16.875Z,36.41
2018-01-29T02:16:17.474Z,36.41
2018-01-29T02:16:18.074Z,36.51
2018-01-29T02:16:18.674Z,36.41
2018-01-29T02:16:19.274Z,36.51
2018-01-29T02:16:19.874Z,36.22
2018-01-29T02:17:14.354Z,35.55
2018-01-29T02:17:14.949Z,35.64
2018-01-29T02:17:15.578Z,35.55
2018-01-29T02:17:16.149Z,35.64
2018-01-29T02:17:16.749Z,35.64
2018-01-29T02:17:17.351Z,35.64
2018-01-29T02:17:17.949Z,35.64
2018-01-29T02:17:18.550Z,35.64
2018-01-29T02:18:13.029Z,35.74
2018-01-29T02:18:13.625Z,35.84
2018-01-29T02:18:14.225Z,35.84
2018-01-29T02:18:14.826Z,35.84
2018-01-29T02:18:15.426Z,35.64
2018-01-29T02:18:16.025Z,35.74
2018-01-29T02:18:16.625Z,35.74
2018-01-29T02:18:17.225Z,35.74
2018-01-29T02:19:10.681Z,34.88
2018-01-29T02:19:11.279Z,34.88
2018-01-29T02:19:11.882Z,34.88
2018-01-29T02:19:12.480Z,34.88
2018-01-29T02:19:13.078Z,34.98
2018-01-29T02:19:13.679Z,34.79
2018-01-29T02:19:14.279Z,34.79
2018-01-29T02:19:14.878Z,34.88
2018-01-29T02:20:08.359Z,34.98
2018-01-29T02:20:08.941Z,34.88
2018-01-29T02:20:09.530Z,34.98
2018-01-29T02:20:10.135Z,34.98
2018-01-29T02:20:10.729Z,35.08
2018-01-29T02:20:11.330Z,34.88
2018-01-29T02:20:11.930Z,34.88
2018-01-29T02:20:12.529Z,34.98
2018-01-29T02:21:07.008Z,34.03
2018-01-29T02:21:07.604Z,33.55
2018-01-29T02:21:08.207Z,34.12
2018-01-29T02:21:08.805Z,33.93
2018-01-29T02:21:09.404Z,33.64
2018-01-29T02:21:10.005Z,33.45
2018-01-29T02:21:10.604Z,33.93
2018-01-29T02:21:11.204Z,33.84
2018-01-29T02:22:04.660Z,32.40
2018-01-29T02:22:05.258Z,32.50
2018-01-29T02:22:05.857Z,32.50
2018-01-29T02:22:06.461Z,32.50
2018-01-29T02:22:07.057Z,32.50
2018-01-29T02:22:07.655Z,32.50
2018-01-29T02:22:08.256Z,32.50
2018-01-29T02:22:08.856Z,32.50
2018-01-29T02:23:02.311Z,32.03
2018-01-29T02:23:02.910Z,32.40
2018-01-29T02:23:03.510Z,32.40
2018-01-29T02:23:04.109Z,32.21
2018-01-29T02:23:04.707Z,32.12
2018-01-29T02:23:05.311Z,32.40
2018-01-29T02:23:05.908Z,32.40
2018-01-29T02:23:06.508Z,32.31
2018-01-29T02:23:59.965Z,30.98
2018-01-29T02:24:00.561Z,31.16
2018-01-29T02:24:01.159Z,30.98
2018-01-29T02:24:01.765Z,31.07
2018-01-29T02:24:02.360Z,31.16
2018-01-29T02:24:02.960Z,31.16
2018-01-29T02:24:03.558Z,30.98
2018-01-29T02:24:04.159Z,31.26
2018-01-29T02:24:58.671Z,31.26
2018-01-29T02:24:59.235Z,30.79
2018-01-29T02:24:59.834Z,30.88
2018-01-29T02:25:00.434Z,30.79
2018-01-29T02:25:01.035Z,30.88
2018-01-29T02:25:01.634Z,30.79
2018-01-29T02:25:02.235Z,31.16
2018-01-29T02:25:02.836Z,31.07
2018-01-29T02:25:57.314Z,30.88
2018-01-29T02:25:57.911Z,30.79
2018-01-29T02:25:58.511Z,30.79
2018-01-29T02:25:59.111Z,30.98
2018-01-29T02:25:59.711Z,30.69
2018-01-29T02:26:00.312Z,30.98
2018-01-29T02:26:00.911Z,30.88
2018-01-29T02:26:01.509Z,30.79
2018-01-29T02:26:55.020Z,30.79
2018-01-29T02:26:55.563Z,30.79
2018-01-29T02:26:56.162Z,30.88
2018-01-29T02:26:56.762Z,30.88
2018-01-29T02:26:57.363Z,30.88
2018-01-29T02:26:57.962Z,30.88
2018-01-29T02:26:58.567Z,30.88
2018-01-29T02:26:59.163Z,30.79
2018-01-29T02:27:52.618Z,30.12
2018-01-29T02:27:53.216Z,30.12
2018-01-29T02:27:53.815Z,30.12
2018-01-29T02:27:54.418Z,30.21
2018-01-29T02:27:55.016Z,30.02
2018-01-29T02:27:55.614Z,30.12
2018-01-29T02:27:56.216Z,30.02
2018-01-29T02:27:56.814Z,30.02
2018-01-29T02:28:51.294Z,29.93
2018-01-29T02:28:51.890Z,30.02
2018-01-29T02:28:52.491Z,30.12
2018-01-29T02:28:53.090Z,30.02
2018-01-29T02:28:53.689Z,30.12
2018-01-29T02:28:54.290Z,30.02
2018-01-29T02:28:54.890Z,30.31
2018-01-29T02:28:55.490Z,29.93
2018-01-29T02:29:49.970Z,30.31
2018-01-29T02:29:50.567Z,30.21
2018-01-29T02:29:51.168Z,30.12
2018-01-29T02:29:51.768Z,30.21
2018-01-29T02:29:52.363Z,30.31
2018-01-29T02:29:52.964Z,30.12
2018-01-29T02:29:53.563Z,30.12
2018-01-29T02:29:54.171Z,30.40
2018-01-29T02:30:48.670Z,30.79
2018-01-29T02:30:49.244Z,30.98
2018-01-29T02:30:49.842Z,30.69
2018-01-29T02:30:50.441Z,30.60
2018-01-29T02:30:51.042Z,30.50
2018-01-29T02:30:51.643Z,30.50
2018-01-29T02:30:52.243Z,30.60
2018-01-29T02:30:52.841Z,30.69
2018-01-29T02:31:47.319Z,31.93
2018-01-29T02:31:47.917Z,31.84
2018-01-29T02:31:48.516Z,31.64
2018-01-29T02:31:49.117Z,31.84
2018-01-29T02:31:49.717Z,31.74
2018-01-29T02:31:50.316Z,31.84
2018-01-29T02:31:50.915Z,31.84
2018-01-29T02:31:51.517Z,31.84
2018-01-29T02:32:44.973Z,32.50
2018-01-29T02:32:45.569Z,32.60
2018-01-29T02:32:46.171Z,32.50
2018-01-29T02:32:46.825Z,32.40
2018-01-29T02:32:47.369Z,32.21
2018-01-29T02:32:47.969Z,32.21
2018-01-29T02:32:48.570Z,32.31
2018-01-29T02:32:49.174Z,32.40
2018-01-29T02:33:43.649Z,32.21
2018-01-29T02:33:44.246Z,32.21
2018-01-29T02:33:44.843Z,32.21
2018-01-29T02:33:45.443Z,32.12
2018-01-29T02:33:46.044Z,32.21
2018-01-29T02:33:46.645Z,32.21
2018-01-29T02:33:47.244Z,32.21
2018-01-29T02:33:47.842Z,32.21
2018-01-29T02:52:52.199Z,35.84
2018-01-29T02:52:52.770Z,35.84
2018-01-29T02:52:53.368Z,35.84
2018-01-29T02:52:53.967Z,35.93
2018-01-29T02:52:54.567Z,35.93
2018-01-29T02:52:55.168Z,35.93
2018-01-29T02:52:55.766Z,35.93
2018-01-29T02:52:56.368Z,35.93
2018-01-29T02:53:49.825Z,34.96
2018-01-29T02:53:50.421Z,34.69
2018-01-29T02:53:51.020Z,34.88
2018-01-29T02:53:51.620Z,34.88
2018-01-29T02:53:52.219Z,35.08
2018-01-29T02:53:52.819Z,34.88
2018-01-29T02:53:53.419Z,34.98
2018-01-29T02:53:54.019Z,34.88
2018-01-29T02:54:48.524Z,33.64
2018-01-29T02:54:49.099Z,33.64
2018-01-29T02:54:49.695Z,33.84
2018-01-29T02:54:50.295Z,33.64
2018-01-29T02:54:50.895Z,33.84
2018-01-29T02:54:51.494Z,33.82
2018-01-29T02:54:52.094Z,33.74
2018-01-29T02:54:52.695Z,33.72
2018-01-29T02:55:46.160Z,32.58
2018-01-29T02:55:46.750Z,32.60
2018-01-29T02:55:47.347Z,32.60
2018-01-29T02:55:47.949Z,32.50
2018-01-29T02:55:48.547Z,32.40
2018-01-29T02:55:49.147Z,32.10
2018-01-29T02:55:49.746Z,32.12
2018-01-29T02:55:50.346Z,32.10
2018-01-29T02:56:44.826Z,30.77
2018-01-29T02:56:45.443Z,30.79
2018-01-29T02:56:46.030Z,30.60
2018-01-29T02:56:46.628Z,30.49
2018-01-29T02:56:47.228Z,30.58
2018-01-29T02:56:47.821Z,30.49
2018-01-29T02:56:48.421Z,30.58
2018-01-29T02:56:49.021Z,30.60
2018-01-29T02:57:43.505Z,29.05
2018-01-29T02:57:44.102Z,29.05
2018-01-29T02:57:44.700Z,29.05
2018-01-29T02:57:45.300Z,29.05
2018-01-29T02:57:45.899Z,29.25
2018-01-29T02:57:46.500Z,29.15
2018-01-29T02:57:47.099Z,29.15
2018-01-29T02:57:47.698Z,28.96
2018-01-29T02:58:42.179Z,28.40
2018-01-29T02:58:42.778Z,28.20
2018-01-29T02:58:43.375Z,27.91
2018-01-29T02:58:43.975Z,27.91
2018-01-29T02:58:44.574Z,28.01
2018-01-29T02:58:45.180Z,27.73
2018-01-29T02:58:45.774Z,28.01
2018-01-29T02:58:46.375Z,28.01
2018-01-29T02:59:40.888Z,26.96
2018-01-29T02:59:41.453Z,26.86
2018-01-29T02:59:42.051Z,27.45
2018-01-29T02:59:42.651Z,27.34
2018-01-29T02:59:43.251Z,27.53
2018-01-29T02:59:43.851Z,27.34
2018-01-29T02:59:44.451Z,27.34
2018-01-29T02:59:45.053Z,27.53
2018-01-29T03:00:38.509Z,26.59
2018-01-29T03:00:39.104Z,26.58
2018-01-29T03:00:39.704Z,26.48
2018-01-29T03:00:40.304Z,26.58
2018-01-29T03:00:40.904Z,26.67
2018-01-29T03:00:41.504Z,26.29
2018-01-29T03:00:42.103Z,26.48
2018-01-29T03:00:42.703Z,26.39
2018-01-29T03:01:37.183Z,25.43
2018-01-29T03:01:37.780Z,25.43
2018-01-29T03:01:38.380Z,25.62
2018-01-29T03:01:38.978Z,25.53
2018-01-29T03:01:39.579Z,25.43
2018-01-29T03:01:40.180Z,25.62
2018-01-29T03:01:40.779Z,25.82
2018-01-29T03:01:41.379Z,25.43
2018-01-29T03:02:34.844Z,24.58
2018-01-29T03:02:35.439Z,24.58
2018-01-29T03:02:36.074Z,24.48
2018-01-29T03:02:36.671Z,24.77
2018-01-29T03:02:37.258Z,24.58
2018-01-29T03:02:37.831Z,24.77
2018-01-29T03:02:38.431Z,24.77
2018-01-29T03:02:39.033Z,24.78
2018-01-29T03:03:33.512Z,24.29
2018-01-29T03:03:34.109Z,24.40
2018-01-29T03:03:34.706Z,24.40
2018-01-29T03:03:35.311Z,24.29
2018-01-29T03:03:35.907Z,24.29
2018-01-29T03:03:36.507Z,24.30
2018-01-29T03:03:37.106Z,24.40
2018-01-29T03:03:37.707Z,24.39
2018-01-29T03:04:32.187Z,24.01
2018-01-29T03:04:32.783Z,24.02
2018-01-29T03:04:33.381Z,24.10
2018-01-29T03:04:33.982Z,24.02
2018-01-29T03:04:34.582Z,24.19
2018-01-29T03:04:35.182Z,23.91
2018-01-29T03:04:35.780Z,24.29
2018-01-29T03:04:36.382Z,23.91
2018-01-29T03:05:30.896Z,24.19
2018-01-29T03:05:31.459Z,24.10
2018-01-29T03:05:32.059Z,24.10
2018-01-29T03:05:32.658Z,24.19
2018-01-29T03:05:33.260Z,24.19
2018-01-29T03:05:33.858Z,23.91
2018-01-29T03:05:34.461Z,24.19
2018-01-29T03:05:35.058Z,24.19
2018-01-29T03:06:29.538Z,24.10
2018-01-29T03:06:30.135Z,24.01
2018-01-29T03:06:30.735Z,24.01
2018-01-29T03:06:31.333Z,24.01
2018-01-29T03:06:31.933Z,24.10
2018-01-29T03:06:32.535Z,24.02
2018-01-29T03:06:33.135Z,24.01
2018-01-29T03:06:33.733Z,24.10
2018-01-29T03:07:28.217Z,23.82
2018-01-29T03:07:28.812Z,23.83
2018-01-29T03:07:29.410Z,23.82
2018-01-29T03:07:30.012Z,23.82
2018-01-29T03:07:30.609Z,23.73
2018-01-29T03:07:31.208Z,23.92
2018-01-29T03:07:31.809Z,23.82
2018-01-29T03:07:32.408Z,24.10
2018-01-29T03:08:25.865Z,23.54
2018-01-29T03:08:26.464Z,23.54
2018-01-29T03:08:27.069Z,23.53
2018-01-29T03:08:27.661Z,23.54
2018-01-29T03:08:28.262Z,23.35
2018-01-29T03:08:28.861Z,23.43
2018-01-29T03:08:29.462Z,23.54
2018-01-29T03:08:30.061Z,23.44
2018-01-29T03:09:24.540Z,23.15
2018-01-29T03:09:25.140Z,22.86
2018-01-29T03:09:25.736Z,23.35
2018-01-29T03:09:26.337Z,23.05
2018-01-29T03:09:26.939Z,23.44
2018-01-29T03:09:27.537Z,23.43
2018-01-29T03:09:28.136Z,23.34
2018-01-29T03:09:28.739Z,23.53
2018-01-29T03:10:22.192Z,24.30
2018-01-29T03:10:22.789Z,24.29
2018-01-29T03:10:23.388Z,24.30
2018-01-29T03:10:23.990Z,24.39
2018-01-29T03:10:24.588Z,24.19
2018-01-29T03:10:25.188Z,23.91
2018-01-29T03:10:25.789Z,23.92
2018-01-29T03:10:26.390Z,24.21
2018-01-29T03:11:20.894Z,24.19
2018-01-29T03:11:21.464Z,23.83
2018-01-29T03:11:22.065Z,24.21
2018-01-29T03:11:22.665Z,24.21
2018-01-29T03:11:23.264Z,24.30
2018-01-29T03:11:23.867Z,24.21
2018-01-29T03:11:24.464Z,24.02
2018-01-29T03:11:25.068Z,24.19
2018-01-29T03:12:19.543Z,23.91
2018-01-29T03:12:20.141Z,24.40
2018-01-29T03:12:20.742Z,24.49
2018-01-29T03:12:21.341Z,24.40
2018-01-29T03:12:21.939Z,23.73
2018-01-29T03:12:22.539Z,23.64
2018-01-29T03:12:23.143Z,23.83
2018-01-29T03:12:23.740Z,23.64
2018-01-29T03:13:17.196Z,24.29
2018-01-29T03:13:17.793Z,24.30
2018-01-29T03:13:18.393Z,24.39
2018-01-29T03:13:18.993Z,24.30
2018-01-29T03:13:19.592Z,24.40
2018-01-29T03:13:20.197Z,24.29
2018-01-29T03:13:20.794Z,24.49
2018-01-29T03:13:21.392Z,24.29
2018-01-29T03:14:14.849Z,23.92
2018-01-29T03:14:15.446Z,24.21
2018-01-29T03:14:16.045Z,24.02
2018-01-29T03:14:16.644Z,24.11
2018-01-29T03:14:17.245Z,24.11
2018-01-29T03:14:17.845Z,24.11
2018-01-29T03:14:18.444Z,24.29
2018-01-29T03:14:19.045Z,24.02
2018-01-29T03:15:12.500Z,24.11
2018-01-29T03:15:13.096Z,24.02
2018-01-29T03:15:13.695Z,24.02
2018-01-29T03:15:14.297Z,24.02
2018-01-29T03:15:14.897Z,24.21
2018-01-29T03:15:15.496Z,24.30
2018-01-29T03:15:16.095Z,24.11
2018-01-29T03:15:16.696Z,24.02
2018-01-29T03:16:11.178Z,23.83
2018-01-29T03:16:11.770Z,24.02
2018-01-29T03:16:12.371Z,24.02
2018-01-29T03:16:12.974Z,23.73
2018-01-29T03:16:13.570Z,24.11
2018-01-29T03:16:14.171Z,23.73
2018-01-29T03:16:14.770Z,23.92
2018-01-29T03:16:15.370Z,24.21
2018-01-29T03:17:09.873Z,24.49
2018-01-29T03:17:10.448Z,24.49
2018-01-29T03:17:11.046Z,24.49
2018-01-29T03:17:11.645Z,24.49
2018-01-29T03:17:12.247Z,24.49
2018-01-29T03:17:12.846Z,24.49
2018-01-29T03:17:13.445Z,24.49
2018-01-29T03:17:14.045Z,24.49
2018-01-29T03:18:07.502Z,24.30
2018-01-29T03:18:08.099Z,24.21
2018-01-29T03:18:08.698Z,24.59
2018-01-29T03:18:09.298Z,24.49
2018-01-29T03:18:09.899Z,24.30
2018-01-29T03:18:10.499Z,24.21
2018-01-29T03:18:11.100Z,24.30
2018-01-29T03:18:11.699Z,24.39
2018-01-29T03:19:05.155Z,24.40
2018-01-29T03:19:05.751Z,24.49
2018-01-29T03:19:06.350Z,24.49
2018-01-29T03:19:06.950Z,24.40
2018-01-29T03:19:07.550Z,24.49
2018-01-29T03:19:08.150Z,24.49
2018-01-29T03:19:08.750Z,24.49
2018-01-29T03:19:09.351Z,24.49
2018-01-29T03:20:02.807Z,24.88
2018-01-29T03:20:03.404Z,24.78
2018-01-29T03:20:04.055Z,24.88
2018-01-29T03:20:04.603Z,24.97
2018-01-29T03:20:05.204Z,24.77
2018-01-29T03:20:05.803Z,24.88
2018-01-29T03:20:06.402Z,24.78
2018-01-29T03:20:07.002Z,24.88
2018-01-29T03:21:01.480Z,26.21
2018-01-29T03:21:02.077Z,26.59
2018-01-29T03:21:02.676Z,26.68
2018-01-29T03:21:03.276Z,26.78
2018-01-29T03:21:03.876Z,26.78
2018-01-29T03:21:04.475Z,26.59
2018-01-29T03:21:05.076Z,26.59
2018-01-29T03:21:05.677Z,26.40
2018-01-29T03:22:00.188Z,27.55
2018-01-29T03:22:00.755Z,27.64
2018-01-29T03:22:01.354Z,27.55
2018-01-29T03:22:01.953Z,27.55
2018-01-29T03:22:02.551Z,27.64
2018-01-29T03:22:03.152Z,27.64
2018-01-29T03:22:03.752Z,27.64
2018-01-29T03:22:04.352Z,27.64
2018-01-29T03:22:58.832Z,27.73
2018-01-29T03:22:59.428Z,27.83
2018-01-29T03:23:00.029Z,28.12
2018-01-29T03:23:00.627Z,27.92
2018-01-29T03:23:01.227Z,28.02
2018-01-29T03:23:01.827Z,28.12
2018-01-29T03:23:02.427Z,28.12
2018-01-29T03:23:03.028Z,27.92
2018-01-29T03:23:57.506Z,29.45
2018-01-29T03:23:58.105Z,29.45
2018-01-29T03:23:58.704Z,29.45
2018-01-29T03:23:59.304Z,29.55
2018-01-29T03:23:59.904Z,29.45
2018-01-29T03:24:00.506Z,29.55
2018-01-29T03:24:01.104Z,29.36
2018-01-29T03:24:01.704Z,29.36
2018-01-29T03:24:56.196Z,28.97
2018-01-29T03:24:56.781Z,29.07
2018-01-29T03:24:57.433Z,29.07
2018-01-29T03:24:57.983Z,28.88
2018-01-29T03:24:58.582Z,28.88
2018-01-29T03:24:59.180Z,28.88
2018-01-29T03:24:59.779Z,28.88
2018-01-29T03:25:00.380Z,28.88
2018-01-29T03:25:54.858Z,32.69
2018-01-29T03:25:55.456Z,32.60
2018-01-29T03:25:56.056Z,32.60
2018-01-29T03:25:56.655Z,32.69
2018-01-29T03:25:57.257Z,32.50
2018-01-29T03:25:57.856Z,32.50
2018-01-29T03:25:58.454Z,32.50
2018-01-29T03:25:59.054Z,32.79
2018-01-29T03:26:53.534Z,36.03
2018-01-29T03:26:54.131Z,36.03
2018-01-29T03:26:54.731Z,36.41
2018-01-29T03:26:55.330Z,36.51
2018-01-29T03:26:55.931Z,36.41
2018-01-29T03:26:56.530Z,36.69
2018-01-29T03:26:57.130Z,36.79
2018-01-29T03:26:57.734Z,36.79
2018-01-29T03:27:51.234Z,38.51
2018-01-29T03:27:51.783Z,38.79
2018-01-29T03:27:52.382Z,38.70
2018-01-29T03:27:52.982Z,38.79
2018-01-29T03:27:53.585Z,38.79
2018-01-29T03:27:54.183Z,38.89
2018-01-29T03:27:54.782Z,38.98
2018-01-29T03:27:55.381Z,38.89
2018-01-29T03:28:48.838Z,38.89
2018-01-29T03:28:49.435Z,38.89
2018-01-29T03:28:50.036Z,38.89
2018-01-29T03:28:50.635Z,38.70
2018-01-29T03:28:51.234Z,39.17
2018-01-29T03:28:51.835Z,39.17
2018-01-29T03:28:52.435Z,39.17
2018-01-29T03:28:53.034Z,39.27
2018-01-29T03:29:47.514Z,40.70
2018-01-29T03:29:48.116Z,40.70
2018-01-29T03:29:48.709Z,40.89
2018-01-29T03:29:49.310Z,40.41
2018-01-29T03:29:49.910Z,40.99
2018-01-29T03:29:50.509Z,40.99
2018-01-29T03:29:51.109Z,41.08
2018-01-29T03:29:51.711Z,41.08
2018-01-29T03:30:45.165Z,43.65
2018-01-29T03:30:45.768Z,43.65
2018-01-29T03:30:46.362Z,43.65
2018-01-29T03:30:46.963Z,43.75
2018-01-29T03:30:47.563Z,43.56